FOLSOM LAKE (FOL)

Elevation: 466' · AMERICAN R basin · Operator: US Bureau of Reclamation

Provisional data, subject to change.
Query executed Thursday at 16:12:52   clock

Select a sensor type for a plot of data.
Note: Reservoir Flows are daily averages.

Earlier

Date RES ELE    STORAGE    RES CHG    TOC STO    ABV TOC    OUTFLOW    INFLOW    EVAP    FNF    RIV REL    PPT INC    SPILL    DC PUMP    DIS PWR   
 FEET   AF   AF   AF   AF   CFS   CFS   CFS   CFS   CFS   INCHES   CFS   CFS   CFS  
01/12/2014 359.93 172792 -360 577000 -404208 797 618 2 198 e 0 0.00 0 81 716
01/13/2014 359.82 172397 -395 577000 -404603 625 433 7 268 0 0.01 0 79 546
01/14/2014 359.69 171931 -- 577000 -- 592 362 5 283 e 0 0.00 0 68 524
01/15/2014 359.44 171034 -897 577000 -405966 780 333 5 282 e 0 0.00 0 64 716
01/16/2014 359.22 170244 -790 577000 -406756 719 328 7 388 e 0 0.00 0 77 642
01/17/2014 359.08 169742 -502 577000 -407258 581 335 7 230 0 0.00 0 84 497
01/18/2014 359.00 169455 -287 577000 -407545 667 529 7 374 0 0.00 0 85 582
01/19/2014 359.02 169527 72 577000 -407473 588 632 8 387 e 0 0.00 0 85 503
01/20/2014 358.82 168817 -710 577000 -408183 664 314 8 260 0 0.00 0 85 579
01/21/2014 358.62 168108 -709 577000 -408892 633 285 9 151 e 0 0.00 0 76 557
01/22/2014 358.41 167363 -745 577000 -409637 631 262 7 151 e 0 0.00 0 70 561
01/23/2014 358.12 166335 -1028 577000 -410665 725 215 8 166 0 0.00 0 72 653
01/24/2014 357.87 165455 -880 577000 -- 715 280 9 169 e 0 0.00 0 82 633
01/25/2014 357.80 165209 -246 577000 -411791 673 558 9 168 e 0 0.00 0 86 587
01/26/2014 357.94 165700 491 577000 -411300 361 619 10 138 0 0.00 0 80 281
01/27/2014 357.78 165139 -561 577000 -411861 627 353 9 148 0 0.00 0 67 560
01/28/2014 357.58 164439 -700 577000 -412561 634 287 6 450 e 0 0.00 0 68 566
01/29/2014 357.41 163843 -596 577000 -413157 614 320 6 625 e 0 0.00 0 67 547
01/30/2014 357.20 163108 -735 577000 -413892 810 439 0 2306 0 0.16 0 60 750
01/31/2014 357.32 163528 420 577000 -- 583 800 5 1297 0 0.22 0 60 523
02/01/2014 357.36 163668 140 577000 -- 601 681 9 786 0 0.11 0 57 544
02/02/2014 357.51 164194 526 577000 -412800 604 877 8 744 0 0.00 0 56 548
02/03/2014 357.40 163808 -386 577000 -413192 592 403 6 470 0 0.00 0 60 532
02/04/2014 357.24 163248 -560 577000 -413752 610 333 5 210 0 0.00 0 55 555
02/05/2014 357.07 162652 -596 577000 -414348 602 307 5 428 0 0.00 0 48 554
02/06/2014 357.06 162617 -35 577000 -414383 443 431 6 579 e 0 0.00 0 44 399
02/07/2014 357.21 163143 526 577000 -413857 599 867 3 1132 e 0 0.28 0 36 563
02/08/2014 358.28 166903 3760 579400 -412497 603 2557 58 5269 0 0.47 0 36 567
02/09/2014 370.36 214581 47678 580600 -366019 61 24099 1 35859 0 2.23 0 40 21
02/10/2014 377.96 250654 36073 582100 -331446 294 18483 2 24059 0 1.99 0 44 250

Later | Latest

Warning! This data is preliminary and subject to revision.

Show FOL Map | Plot FOL Data | 1 Month FOL Data | Real-Time FOL Data | FOL Info